Time;durP1;ratioP1;P1;durP2;ratioP2;P2;SDS_P1;SDS_P2;PMS_P1;PMS_P2;Temp;Humidity;BMP_temperature;BMP_pressure;BME280_temperature;BME280_humidity;BME280_pressure;Samples;Min_cycle;Max_cycle;Signal;HPM_P1;HPM_P2
2022/12/22 03:26:43;;;;;;;4.10;3.40;;;8.50;99.90;;;;;;5014510;28;20251;-62
2022/12/22 03:29:10;;;;;;;3.97;3.37;;;8.40;99.90;;;;;;5029674;28;20199;-61
2022/12/22 03:31:38;;;;;;;3.40;3.07;;;8.40;99.90;;;;;;5030814;28;20202;-63
2022/12/22 03:34:06;;;;;;;3.73;3.30;;;8.40;99.90;;;;;;5029760;28;20194;-62
2022/12/22 03:36:33;;;;;;;3.50;2.53;;;8.40;99.90;;;;;;5011999;28;20507;-62
2022/12/22 03:39:04;;;;;;;3.03;2.73;;;8.50;99.90;;;;;;5013611;28;20210;-62
2022/12/22 03:47:02;;;;;;;6.30;3.83;;;8.90;99.90;;;;;;5030141;28;20250;-61
2022/12/22 03:49:31;;;;;;;11.97;5.93;;;8.40;99.90;;;;;;5028517;28;20201;-62
2022/12/22 03:51:59;;;;;;;10.47;5.37;;;8.40;99.90;;;;;;5027008;28;20191;-62
2022/12/22 03:54:26;;;;;;;14.67;6.73;;;8.40;99.90;;;;;;5006980;28;20913;-62
2022/12/22 03:56:54;;;;;;;15.00;6.20;;;8.40;99.90;;;;;;5030793;28;20190;-60
2022/12/22 03:59:21;;;;;;;14.47;6.20;;;8.40;99.90;;;;;;5027190;28;20204;-62
2022/12/22 04:01:50;;;;;;;16.60;7.30;;;8.40;99.90;;;;;;5010880;28;20199;-62
2022/12/22 04:04:19;;;;;;;26.57;10.70;;;8.40;99.90;;;;;;5025954;28;20231;-62
2022/12/22 04:06:47;;;;;;;29.33;10.83;;;8.40;99.90;;;;;;5030233;28;20322;-62
2022/12/22 04:09:15;;;;;;;24.63;9.93;;;8.30;99.90;;;;;;5026388;28;20188;-62
2022/12/22 04:14:27;;;;;;;17.03;8.23;;;8.30;99.90;;;;;;5027587;28;20182;-61
2022/12/22 04:16:54;;;;;;;13.77;6.60;;;8.20;99.90;;;;;;5026917;28;20538;-61
2022/12/22 04:19:23;;;;;;;12.30;6.40;;;8.20;99.90;;;;;;5009070;28;20229;-62
2022/12/22 04:21:52;;;;;;;10.77;6.57;;;8.30;99.90;;;;;;5028583;28;20199;-62
2022/12/22 04:24:19;;;;;;;12.33;6.27;;;8.20;99.90;;;;;;5026321;28;20205;-62
2022/12/22 04:26:46;;;;;;;12.50;7.23;;;8.20;99.90;;;;;;5026639;28;20191;-60
2022/12/22 04:29:13;;;;;;;12.47;7.83;;;8.20;99.90;;;;;;5028121;28;20194;-61
2022/12/22 04:31:40;;;;;;;13.57;8.00;;;8.30;99.90;;;;;;5028795;28;20661;-62
2022/12/22 04:34:08;;;;;;;14.37;8.83;;;8.20;99.90;;;;;;5007619;28;20202;-60
2022/12/22 04:36:35;;;;;;;11.57;7.77;;;8.20;99.90;;;;;;5026296;28;20283;-62
2022/12/22 04:39:04;;;;;;;12.93;8.90;;;8.20;99.90;;;;;;5024537;28;20656;-61
2022/12/22 04:41:31;;;;;;;16.33;9.57;;;8.10;99.90;;;;;;5009763;28;20207;-62
2022/12/22 04:43:58;;;;;;;14.60;8.43;;;8.10;99.90;;;;;;5027358;28;20711;-62
2022/12/22 04:46:25;;;;;;;10.67;6.40;;;8.00;99.90;;;;;;5027296;28;20210;-62
2022/12/22 04:48:52;;;;;;;7.93;5.60;;;8.10;99.90;;;;;;5029105;28;20624;-62
2022/12/22 04:51:19;;;;;;;7.97;5.27;;;8.10;99.90;;;;;;5008518;28;20195;-62
2022/12/22 04:53:46;;;;;;;12.77;7.33;;;8.10;99.90;;;;;;5028383;28;20223;-62
2022/12/22 04:56:15;;;;;;;8.67;6.30;;;8.10;99.90;;;;;;5022840;28;20293;-63
2022/12/22 04:58:42;;;;;;;9.40;5.90;;;8.10;99.90;;;;;;5027935;28;20202;-63
2022/12/22 05:01:11;;;;;;;8.40;6.00;;;8.10;99.90;;;;;;5025661;28;20234;-62
2022/12/22 05:03:38;;;;;;;6.87;5.30;;;8.10;99.90;;;;;;4984768;28;20328;-62
2022/12/22 05:06:06;;;;;;;4.83;4.23;;;8.20;99.90;;;;;;4987245;28;20230;-62
2022/12/22 05:08:33;;;;;;;5.77;4.50;;;8.10;99.90;;;;;;4988708;28;20199;-61
2022/12/22 05:11:01;;;;;;;5.57;4.40;;;8.20;99.90;;;;;;4991577;28;20204;-62
2022/12/22 05:13:31;;;;;;;4.53;3.80;;;8.20;99.90;;;;;;4988090;28;20201;-61
2022/12/22 05:16:04;;;;;;;5.60;4.33;;;8.20;99.90;;;;;;4974588;28;20196;-61
2022/12/22 05:18:32;;;;;;;6.23;4.40;;;8.30;99.90;;;;;;4987592;28;20322;-61
2022/12/22 05:21:01;;;;;;;5.27;3.80;;;8.30;99.90;;;;;;4987426;28;20205;-62
2022/12/22 05:23:31;;;;;;;5.30;4.30;;;8.30;99.90;;;;;;4985901;28;20227;-62
2022/12/22 05:25:58;;;;;;;5.60;4.10;;;7.40;99.90;;;;;;4987119;28;20506;-63
2022/12/22 05:28:25;;;;;;;6.63;4.47;;;8.30;99.90;;;;;;4988002;28;20198;-63
2022/12/22 05:30:54;;;;;;;9.90;5.50;;;8.30;99.90;;;;;;4988861;28;20198;-63
2022/12/22 05:33:21;;;;;;;6.30;4.57;;;8.30;99.90;;;;;;4985481;28;20196;-61
2022/12/22 05:35:48;;;;;;;6.63;4.97;;;8.30;99.90;;;;;;4990684;28;20201;-62
2022/12/22 05:38:15;;;;;;;7.93;5.23;;;8.30;99.90;;;;;;4988497;28;20193;-62
2022/12/22 05:40:42;;;;;;;5.83;4.20;;;8.40;99.90;;;;;;4986019;28;20261;-62
2022/12/22 05:43:10;;;;;;;5.67;4.20;;;8.40;99.90;;;;;;4986886;28;20208;-62
2022/12/22 05:45:37;;;;;;;5.30;4.00;;;8.30;99.90;;;;;;4987361;28;20208;-62
2022/12/22 05:48:06;;;;;;;8.03;5.37;;;8.30;99.90;;;;;;4989294;28;20202;-62
2022/12/22 05:50:33;;;;;;;8.60;5.30;;;8.30;99.90;;;;;;4987309;28;20210;-61
2022/12/22 05:53:07;;;;;;;8.80;5.77;;;8.30;99.90;;;;;;4989163;28;20279;-62
2022/12/22 05:55:34;;;;;;;7.67;5.57;;;8.30;99.90;;;;;;4984962;28;20279;-62
2022/12/22 05:58:02;;;;;;;7.43;5.37;;;8.40;99.90;;;;;;4986357;28;20205;-62
2022/12/22 06:00:32;;;;;;;8.03;4.60;;;8.30;99.90;;;;;;4986793;28;20203;-61
2022/12/22 06:02:59;;;;;;;5.50;4.20;;;8.40;99.90;;;;;;5005220;28;20276;-62
2022/12/22 06:05:29;;;;;;;11.40;5.93;;;8.40;99.90;;;;;;5024379;28;20277;-62
2022/12/22 06:07:56;;;;;;;12.60;5.83;;;8.40;99.90;;;;;;5024600;28;20199;-62
2022/12/22 06:10:23;;;;;;;7.80;4.63;;;8.40;99.90;;;;;;5003291;28;20195;-62
2022/12/22 06:12:50;;;;;;;11.50;5.67;;;8.50;99.90;;;;;;5008057;28;20208;-61
2022/12/22 06:15:18;;;;;;;12.70;6.50;;;8.50;99.90;;;;;;5024309;28;20705;-62
2022/12/22 06:17:45;;;;;;;13.07;7.17;;;8.40;99.90;;;;;;5026089;28;20274;-62
2022/12/22 06:20:13;;;;;;;15.63;8.37;;;8.40;99.90;;;;;;5023378;28;20204;-63
2022/12/22 06:22:41;;;;;;;15.50;9.50;;;8.40;99.90;;;;;;5027588;28;20213;-62
2022/12/22 06:25:09;;;;;;;18.27;9.60;;;8.30;99.90;;;;;;5024175;28;20214;-63
2022/12/22 06:27:36;;;;;;;22.70;11.13;;;8.30;99.90;;;;;;5027869;28;20198;-62
2022/12/22 06:30:04;;;;;;;24.40;11.67;;;8.30;99.90;;;;;;5008507;28;20334;-62
2022/12/22 06:32:31;;;;;;;23.17;12.17;;;8.20;99.90;;;;;;5027696;28;20194;-62
2022/12/22 06:34:58;;;;;;;22.53;12.27;;;8.20;99.90;;;;;;5026480;28;20205;-62
2022/12/22 06:37:25;;;;;;;18.10;10.60;;;8.20;99.90;;;;;;5027016;28;20214;-63
2022/12/22 06:39:54;;;;;;;22.07;10.60;;;8.10;99.90;;;;;;5022265;28;20196;-62
2022/12/22 06:45:06;;;;;;;13.23;8.10;;;8.10;99.90;;;;;;5009128;28;20229;-61
2022/12/22 06:47:34;;;;;;;16.03;8.80;;;8.10;99.90;;;;;;5031157;28;20289;-63
2022/12/22 06:50:01;;;;;;;14.97;8.50;;;8.10;99.90;;;;;;5029602;28;20199;-62
2022/12/22 06:52:28;;;;;;;13.90;7.80;;;8.10;99.90;;;;;;5033352;28;20275;-61
2022/12/22 06:54:56;;;;;;;12.03;6.97;;;8.10;99.90;;;;;;5027488;28;20199;-62
2022/12/22 06:57:24;;;;;;;9.50;5.90;;;8.10;99.90;;;;;;5030420;28;20194;-61
2022/12/22 06:59:51;;;;;;;8.60;5.53;;;8.10;99.90;;;;;;5025279;28;20533;-61
2022/12/22 07:02:18;;;;;;;12.53;7.57;;;8.20;99.90;;;;;;5010976;28;20324;-61
2022/12/22 07:04:45;;;;;;;16.97;9.27;;;8.20;99.90;;;;;;5011535;28;20210;-62
2022/12/22 07:07:12;;;;;;;14.87;8.50;;;8.20;99.90;;;;;;5016445;28;20291;-62
2022/12/22 07:09:39;;;;;;;17.10;9.53;;;8.20;99.90;;;;;;4996277;28;20213;-63
2022/12/22 07:12:08;;;;;;;21.13;11.70;;;8.20;99.90;;;;;;5026790;28;20205;-63
2022/12/22 07:14:35;;;;;;;25.03;12.03;;;8.20;99.90;;;;;;5027712;28;20669;-62
2022/12/22 07:17:02;;;;;;;21.73;11.77;;;8.20;99.90;;;;;;5028463;28;20216;-62
2022/12/22 07:19:29;;;;;;;21.97;11.13;;;8.10;99.90;;;;;;5025843;28;20198;-61
2022/12/22 07:21:56;;;;;;;23.83;11.70;;;8.10;99.90;;;;;;5020154;28;20494;-62
2022/12/22 07:24:24;;;;;;;21.43;10.97;;;8.10;99.90;;;;;;5025795;28;20210;-61
2022/12/22 07:26:51;;;;;;;19.37;9.30;;;8.10;99.90;;;;;;5023149;28;21046;-62
2022/12/22 07:29:20;;;;;;;20.37;9.90;;;8.10;99.90;;;;;;5005929;28;20205;-62
2022/12/22 07:31:47;;;;;;;19.60;10.73;;;8.00;99.90;;;;;;5028545;28;20192;-62
2022/12/22 07:34:15;;;;;;;21.80;10.77;;;8.00;99.90;;;;;;5027684;28;20277;-62
2022/12/22 07:36:42;;;;;;;20.77;10.10;;;8.00;99.90;;;;;;5011011;28;20208;-62
2022/12/22 07:39:10;;;;;;;21.17;10.33;;;8.00;99.90;;;;;;5026763;28;20199;-62
2022/12/22 07:44:23;;;;;;;27.00;14.00;;;8.00;99.90;;;;;;5026582;28;20210;-62
2022/12/22 07:46:50;;;;;;;23.13;12.20;;;7.90;99.90;;;;;;5027977;28;20674;-62
2022/12/22 07:52:02;;;;;;;21.13;10.20;;;7.90;99.90;;;;;;5002069;28;20199;-61
2022/12/22 07:54:29;;;;;;;21.70;10.60;;;7.90;99.90;;;;;;5022862;28;20213;-62
2022/12/22 07:56:56;;;;;;;20.60;11.10;;;7.90;99.90;;;;;;5025596;28;20199;-61
2022/12/22 07:59:25;;;;;;;20.03;10.17;;;7.90;99.90;;;;;;5023741;28;21011;-62
2022/12/22 08:01:52;;;;;;;21.97;10.70;;;7.90;99.90;;;;;;5025938;28;20607;-63
2022/12/22 08:04:20;;;;;;;19.47;10.03;;;7.90;99.90;;;;;;5023112;28;20708;-62
2022/12/22 08:06:48;;;;;;;17.17;9.83;;;7.90;99.90;;;;;;5027171;28;20197;-62
2022/12/22 08:09:17;;;;;;;16.00;9.13;;;7.90;99.90;;;;;;5024833;28;20217;-62
2022/12/22 08:11:44;;;;;;;17.70;9.67;;;7.90;99.90;;;;;;5027804;28;20202;-61
2022/12/22 08:14:11;;;;;;;20.57;10.10;;;8.00;99.90;;;;;;5026087;28;20280;-62
2022/12/22 08:16:40;;;;;;;15.30;8.67;;;8.00;99.90;;;;;;5027010;28;20190;-61
2022/12/22 08:19:07;;;;;;;14.37;8.20;;;8.00;99.90;;;;;;5024889;28;20202;-62
2022/12/22 08:21:34;;;;;;;16.47;9.10;;;8.00;99.90;;;;;;5025357;28;20555;-62
2022/12/22 08:24:01;;;;;;;15.50;9.17;;;8.00;99.90;;;;;;5026242;28;20269;-62
2022/12/22 08:26:35;;;;;;;20.97;10.57;;;8.00;99.90;;;;;;5025625;28;20822;-61
2022/12/22 08:29:08;;;;;;;21.77;10.57;;;8.00;99.90;;;;;;5026472;28;20644;-62
2022/12/22 08:31:35;;;;;;;16.43;9.40;;;8.00;99.90;;;;;;5009130;28;20199;-62
2022/12/22 08:34:06;;;;;;;22.13;12.07;;;8.00;99.90;;;;;;5026463;28;20532;-62
2022/12/22 08:36:37;;;;;;;25.10;12.77;;;8.00;99.90;;;;;;5025133;28;20191;-62
2022/12/22 08:39:04;;;;;;;21.53;12.07;;;8.00;99.90;;;;;;5026017;28;20679;-63
2022/12/22 08:41:51;;;;;;;27.00;13.33;;;8.00;99.90;;;;;;5025509;28;20748;-62
2022/12/22 08:44:21;;;;;;;21.27;11.80;;;8.00;99.90;;;;;;5023752;28;20749;-62
2022/12/22 08:46:48;;;;;;;23.10;12.23;;;8.00;99.90;;;;;;5026986;28;20599;-62
2022/12/22 08:49:17;;;;;;;25.17;14.17;;;8.00;99.90;;;;;;5025419;28;20204;-62
2022/12/22 08:51:45;;;;;;;22.43;13.03;;;8.00;99.90;;;;;;5024874;28;20204;-61
2022/12/22 08:54:13;;;;;;;25.17;12.70;;;8.10;99.90;;;;;;5007686;28;20554;-62
2022/12/22 08:56:40;;;;;;;20.97;11.27;;;8.10;99.90;;;;;;5023964;28;20260;-62
2022/12/22 08:59:08;;;;;;;24.47;12.43;;;8.10;99.90;;;;;;5023557;28;20202;-62
2022/12/22 09:01:37;;;;;;;17.10;9.97;;;8.20;99.90;;;;;;5024833;28;20202;-62
2022/12/22 09:04:05;;;;;;;17.70;9.50;;;8.20;99.90;;;;;;5023616;28;20238;-62
2022/12/22 09:06:34;;;;;;;20.97;11.47;;;8.30;99.90;;;;;;5026385;28;20225;-62
2022/12/22 09:09:04;;;;;;;16.83;9.47;;;8.40;99.90;;;;;;5023764;28;20198;-62
2022/12/22 09:11:31;;;;;;;20.47;10.60;;;8.40;99.90;;;;;;5005497;28;20295;-62
2022/12/22 09:14:00;;;;;;;13.10;7.67;;;8.40;99.90;;;;;;5024886;28;20205;-62
2022/12/22 09:16:29;;;;;;;19.50;10.97;;;8.40;99.90;;;;;;5024043;28;20204;-62
2022/12/22 09:18:56;;;;;;;16.77;9.77;;;8.40;99.90;;;;;;5002882;28;20206;-62
2022/12/22 09:21:25;;;;;;;18.00;10.67;;;8.40;99.90;;;;;;5021082;28;20205;-62
2022/12/22 09:23:54;;;;;;;21.67;11.60;;;8.40;99.90;;;;;;5023099;28;20285;-63
2022/12/22 09:26:23;;;;;;;15.20;9.37;;;8.40;99.90;;;;;;5021339;28;20194;-62
2022/12/22 09:28:51;;;;;;;16.90;9.03;;;8.50;99.90;;;;;;5023985;28;20206;-62
2022/12/22 09:31:18;;;;;;;17.33;9.77;;;8.50;99.90;;;;;;5023791;28;20197;-62
2022/12/22 09:33:45;;;;;;;21.90;11.70;;;8.50;99.90;;;;;;5023535;28;20207;-62
2022/12/22 09:36:15;;;;;;;18.13;10.13;;;8.50;99.90;;;;;;5024914;28;20197;-62
2022/12/22 09:38:43;;;;;;;20.73;10.37;;;8.50;99.90;;;;;;5023163;28;20291;-62
2022/12/22 09:41:17;;;;;;;19.20;10.40;;;8.50;99.90;;;;;;5004299;28;20571;-62
2022/12/22 09:43:45;;;;;;;19.97;9.70;;;8.50;99.90;;;;;;5024630;28;20190;-62
2022/12/22 09:46:19;;;;;;;19.00;9.80;;;8.50;99.90;;;;;;5023497;28;20401;-61
2022/12/22 09:48:47;;;;;;;20.50;10.07;;;8.50;99.90;;;;;;5025623;28;20194;-62
2022/12/22 09:51:16;;;;;;;21.40;10.97;;;8.50;99.90;;;;;;5006153;28;20207;-61
2022/12/22 09:53:44;;;;;;;17.63;10.27;;;8.50;99.90;;;;;;5007921;28;20203;-62
2022/12/22 09:56:15;;;;;;;22.57;11.27;;;8.50;99.90;;;;;;5004108;28;20196;-61
2022/12/22 09:58:43;;;;;;;23.53;12.20;;;8.50;99.90;;;;;;5023597;28;20221;-62
2022/12/22 10:01:25;;;;;;;21.87;10.97;;;8.50;99.90;;;;;;5022021;28;20192;-62
2022/12/22 10:03:57;;;;;;;17.57;9.73;;;8.50;99.90;;;;;;5005409;28;20239;-62
2022/12/22 10:06:33;;;;;;;17.17;9.03;;;8.50;99.90;;;;;;5023218;28;20715;-61
2022/12/22 10:09:04;;;;;;;15.83;8.43;;;8.50;99.90;;;;;;5022023;28;20199;-62
2022/12/22 10:11:32;;;;;;;20.70;9.80;;;8.60;99.90;;;;;;5021544;28;20215;-62
2022/12/22 10:13:59;;;;;;;21.53;11.83;;;8.60;99.90;;;;;;5019368;28;20204;-62
2022/12/22 10:16:28;;;;;;;22.23;10.40;;;8.60;99.90;;;;;;5024019;28;20199;-61
2022/12/22 10:18:59;;;;;;;16.73;8.43;;;8.50;99.90;;;;;;5021831;28;20201;-62
2022/12/22 10:21:26;;;;;;;15.10;8.10;;;8.60;99.90;;;;;;5026726;28;20201;-62
2022/12/22 10:23:53;;;;;;;24.90;11.27;;;8.60;99.90;;;;;;5007064;28;20655;-61
2022/12/22 10:26:24;;;;;;;26.10;12.63;;;8.60;99.90;;;;;;5023586;28;20602;-62
2022/12/22 10:28:56;;;;;;;20.23;10.77;;;8.60;99.90;;;;;;5009129;28;20210;-62
2022/12/22 10:31:25;;;;;;;18.13;9.37;;;8.60;99.90;;;;;;5027918;28;20273;-61
2022/12/22 10:33:54;;;;;;;23.80;11.77;;;8.60;99.90;;;;;;5026681;28;20310;-62
2022/12/22 10:36:25;;;;;;;21.97;11.37;;;8.70;99.90;;;;;;5027625;28;20198;-62
2022/12/22 10:39:04;;;;;;;22.17;10.53;;;8.70;99.90;;;;;;5010497;28;20289;-62
2022/12/22 10:41:35;;;;;;;19.30;9.30;;;8.70;99.90;;;;;;5026566;28;20188;-62
2022/12/22 10:44:08;;;;;;;21.07;9.50;;;8.70;99.90;;;;;;5027816;28;20637;-62
2022/12/22 10:46:40;;;;;;;16.10;8.47;;;8.70;99.90;;;;;;5026407;28;20254;-61
2022/12/22 10:49:15;;;;;;;16.40;8.83;;;8.70;99.90;;;;;;5008366;28;20232;-61
2022/12/22 10:51:45;;;;;;;15.93;8.73;;;8.70;99.90;;;;;;5035904;28;20207;-61
2022/12/22 10:54:28;;;;;;;15.23;8.13;;;8.70;99.90;;;;;;5026743;28;20206;-61
2022/12/22 10:57:20;;;;;;;24.37;11.37;;;8.70;99.90;;;;;;5027785;28;20199;-62
2022/12/22 10:59:58;;;;;;;22.40;11.53;;;8.70;99.90;;;;;;5023763;28;20196;-62
2022/12/22 11:02:32;;;;;;;27.07;12.83;;;8.70;99.90;;;;;;5027779;28;20619;-62
2022/12/22 11:05:10;;;;;;;31.20;13.17;;;8.60;99.90;;;;;;5027833;28;20205;-62
2022/12/22 11:07:40;;;;;;;28.00;12.47;;;8.60;99.90;;;;;;5026557;28;20569;-61
2022/12/22 11:10:20;;;;;;;22.67;11.50;;;8.60;99.90;;;;;;5024046;28;20192;-62
2022/12/22 11:13:14;;;;;;;23.73;10.93;;;8.50;99.90;;;;;;5028321;28;20196;-63
2022/12/22 11:15:50;;;;;;;27.20;12.43;;;8.50;99.90;;;;;;5012152;28;20225;-63
2022/12/22 11:18:52;;;;;;;27.53;13.27;;;8.50;99.90;;;;;;5030706;28;20296;-61
2022/12/22 11:21:25;;;;;;;31.50;13.53;;;8.50;99.90;;;;;;5026890;28;20216;-62
2022/12/22 11:24:02;;;;;;;29.33;12.97;;;8.60;99.90;;;;;;5008563;28;20205;-61
2022/12/22 11:26:40;;;;;;;28.77;13.23;;;8.50;99.90;;;;;;5008237;28;20227;-62
2022/12/22 11:29:29;;;;;;;28.80;13.87;;;8.60;99.90;;;;;;5029826;28;20192;-62
2022/12/22 11:32:13;;;;;;;26.97;13.87;;;8.60;99.90;;;;;;5028349;28;20199;-62
2022/12/22 11:34:54;;;;;;;32.57;14.47;;;8.50;99.90;;;;;;5039026;28;20597;-62
2022/12/22 11:37:31;;;;;;;33.70;14.63;;;8.50;99.90;;;;;;5029437;28;20684;-61
2022/12/22 11:40:08;;;;;;;34.73;14.73;;;8.50;99.90;;;;;;5025771;28;20186;-61
2022/12/22 11:42:55;;;;;;;34.27;15.57;;;8.50;99.90;;;;;;5010101;28;20208;-61
2022/12/22 11:45:45;;;;;;;36.27;15.20;;;8.40;99.90;;;;;;5028759;28;20211;-61
2022/12/22 11:48:44;;;;;;;34.40;15.23;;;8.40;99.90;;;;;;5029885;28;20196;-62
2022/12/22 11:51:21;;;;;;;31.27;13.93;;;8.40;99.90;;;;;;5028696;28;20201;-61
2022/12/22 11:54:09;;;;;;;32.80;14.40;;;8.40;99.90;;;;;;5028972;28;20223;-62
2022/12/22 11:56:40;;;;;;;32.50;14.73;;;8.40;99.90;;;;;;5007720;28;20219;-62
2022/12/22 11:59:29;;;;;;;23.07;11.77;;;8.40;99.90;;;;;;5027429;28;20203;-62
2022/12/22 12:02:13;;;;;;;29.40;14.37;;;8.50;99.90;;;;;;4997856;28;20219;-62
2022/12/22 12:05:07;;;;;;;32.93;15.17;;;8.50;99.90;;;;;;5007521;28;20202;-62
2022/12/22 12:07:39;;;;;;;31.03;14.17;;;8.50;99.90;;;;;;5028947;28;20188;-62
2022/12/22 12:10:16;;;;;;;30.47;15.17;;;8.60;99.90;;;;;;5025665;28;20191;-62
2022/12/22 12:12:51;;;;;;;32.07;15.00;;;8.60;99.90;;;;;;5028608;28;20219;-61
2022/12/22 12:15:28;;;;;;;28.20;13.53;;;8.50;99.90;;;;;;5025826;28;20194;-62
2022/12/22 12:18:36;;;;;;;22.67;11.83;;;8.50;99.90;;;;;;5029516;28;20223;-62
2022/12/22 12:21:22;;;;;;;28.37;13.97;;;8.50;99.90;;;;;;5008435;28;20195;-62
2022/12/22 12:24:13;;;;;;;28.27;13.47;;;8.60;99.90;;;;;;5029280;28;20201;-62
2022/12/22 12:26:49;;;;;;;20.40;11.40;;;8.60;99.90;;;;;;5002141;28;20638;-62
2022/12/22 12:29:20;;;;;;;26.87;13.47;;;8.60;99.90;;;;;;5026982;28;20529;-62
2022/12/22 12:31:52;;;;;;;29.43;14.50;;;8.70;99.90;;;;;;5029543;28;20192;-62
2022/12/22 12:34:21;;;;;;;28.87;13.67;;;8.70;99.90;;;;;;5026605;28;20674;-61
2022/12/22 12:36:59;;;;;;;30.97;14.00;;;8.70;99.90;;;;;;5029297;28;20198;-62
2022/12/22 12:39:39;;;;;;;27.83;13.97;;;8.70;99.90;;;;;;5026177;28;20204;-61
2022/12/22 12:42:21;;;;;;;34.37;15.30;;;8.70;99.90;;;;;;5028917;28;20193;-62
2022/12/22 12:44:51;;;;;;;34.00;16.27;;;8.70;99.90;;;;;;5028644;28;20183;-63
2022/12/22 12:47:25;;;;;;;33.57;15.30;;;8.70;99.90;;;;;;5012735;28;20195;-62
2022/12/22 12:50:40;;;;;;;37.20;16.87;;;8.60;99.90;;;;;;5025893;28;20194;-62
2022/12/22 12:53:12;;;;;;;38.13;16.20;;;8.60;99.90;;;;;;5028873;28;20206;-62
2022/12/22 12:55:55;;;;;;;37.43;17.87;;;8.50;99.90;;;;;;5025650;28;20219;-62
2022/12/22 12:58:51;;;;;;;39.77;18.50;;;8.50;99.90;;;;;;5008195;28;20555;-61
2022/12/22 13:01:52;;;;;;;37.07;16.63;;;8.40;99.90;;;;;;4972186;28;20214;-63
2022/12/22 13:04:53;;;;;;;34.80;16.60;;;8.40;99.90;;;;;;5026604;28;20230;-63
2022/12/22 13:07:53;;;;;;;39.70;17.77;;;8.40;99.90;;;;;;5021973;28;20219;-63
2022/12/22 13:10:24;;;;;;;41.20;18.90;;;8.40;99.90;;;;;;5023843;28;20653;-62
2022/12/22 13:12:53;;;;;;;43.37;18.40;;;8.40;99.90;;;;;;5028481;28;20195;-62
2022/12/22 13:15:29;;;;;;;42.13;19.50;;;8.40;99.90;;;;;;5007887;28;20202;-62
2022/12/22 13:17:57;;;;;;;41.57;18.70;;;8.40;99.90;;;;;;5026829;28;20197;-62
2022/12/22 13:20:27;;;;;;;44.30;18.77;;;8.40;99.90;;;;;;5006794;28;20194;-62
2022/12/22 13:22:56;;;;;;;46.80;19.90;;;8.30;99.90;;;;;;5027040;28;20192;-63
2022/12/22 13:25:30;;;;;;;48.77;19.90;;;8.30;99.90;;;;;;5019264;28;20223;-63
2022/12/22 13:27:58;;;;;;;51.60;20.10;;;8.20;99.90;;;;;;5026685;28;20659;-62
2022/12/22 13:30:29;;;;;;;49.63;20.37;;;8.20;99.90;;;;;;5025718;28;20200;-63
2022/12/22 13:33:00;;;;;;;41.23;18.23;;;8.20;99.90;;;;;;5027323;28;20194;-62
2022/12/22 13:35:34;;;;;;;39.20;16.37;;;8.20;99.90;;;;;;5010460;28;20207;-62
2022/12/22 13:38:02;;;;;;;50.60;19.63;;;8.20;99.90;;;;;;5021346;28;20216;-61
2022/12/22 13:40:32;;;;;;;41.93;19.43;;;8.20;99.90;;;;;;5000751;28;20294;-62
2022/12/22 13:43:04;;;;;;;59.03;21.10;;;8.20;99.90;;;;;;5024832;28;20566;-62
2022/12/22 13:45:37;;;;;;;56.43;21.23;;;8.20;99.90;;;;;;5024273;28;20190;-62
2022/12/22 13:48:16;;;;;;;52.60;21.77;;;8.20;99.90;;;;;;5023408;28;20191;-62
2022/12/22 13:50:47;;;;;;;49.10;20.07;;;8.30;99.90;;;;;;5022796;28;20201;-61
2022/12/22 13:53:19;;;;;;;60.77;24.30;;;8.20;99.90;;;;;;5025583;28;20652;-63
2022/12/22 13:55:48;;;;;;;56.97;21.37;;;8.20;99.90;;;;;;5020846;28;20258;-62
2022/12/22 13:58:25;;;;;;;49.47;19.73;;;8.20;99.90;;;;;;5025849;28;20198;-62
2022/12/22 14:01:01;;;;;;;41.60;17.83;;;8.20;99.90;;;;;;5003199;28;20198;-62
2022/12/22 14:03:28;;;;;;;47.70;20.27;;;8.30;99.90;;;;;;5024498;28;20821;-62
2022/12/22 14:05:56;;;;;;;45.80;19.90;;;8.30;99.90;;;;;;5005810;28;20666;-63
2022/12/22 14:08:24;;;;;;;41.53;18.77;;;8.30;99.90;;;;;;5024739;28;20209;-62
2022/12/22 14:10:53;;;;;;;39.77;18.43;;;8.30;99.90;;;;;;5004403;28;20198;-62
2022/12/22 14:13:26;;;;;;;59.73;22.10;;;8.30;99.90;;;;;;5023044;28;20217;-62
2022/12/22 14:16:00;;;;;;;56.63;25.23;;;8.40;99.90;;;;;;5021895;28;20820;-63
2022/12/22 14:18:28;;;;;;;45.03;19.70;;;8.40;99.90;;;;;;5022854;28;20683;-62
2022/12/22 14:20:56;;;;;;;39.10;19.50;;;8.40;99.90;;;;;;5024819;28;20202;-62
2022/12/22 14:23:27;;;;;;;50.00;21.80;;;8.40;99.90;;;;;;5021868;28;20202;-63
2022/12/22 14:25:56;;;;;;;45.53;21.17;;;8.40;99.90;;;;;;5022555;28;20698;-62
2022/12/22 14:28:28;;;;;;;51.27;23.27;;;8.40;99.90;;;;;;5013926;28;20212;-62
2022/12/22 14:30:58;;;;;;;74.53;34.27;;;8.40;99.90;;;;;;5021615;28;20203;-62
2022/12/22 14:33:31;;;;;;;62.33;28.37;;;8.40;99.90;;;;;;5025348;28;20200;-62
2022/12/22 14:36:16;;;;;;;55.93;24.57;;;8.40;99.90;;;;;;5004483;28;20298;-61
2022/12/22 14:38:46;;;;;;;58.50;26.13;;;8.30;99.90;;;;;;5023265;28;20652;-61
2022/12/22 14:44:07;;;;;;;47.13;21.47;;;8.30;99.90;;;;;;5023982;28;20212;-62
2022/12/22 14:46:34;;;;;;;52.70;24.33;;;8.30;99.90;;;;;;5024031;28;20214;-60
2022/12/22 14:49:02;;;;;;;50.30;22.17;;;8.30;99.90;;;;;;5025075;28;20195;-61
2022/12/22 14:51:29;;;;;;;35.30;18.40;;;8.30;99.90;;;;;;5022881;28;20243;-61
2022/12/22 14:53:59;;;;;;;54.10;23.37;;;8.30;99.90;;;;;;5025526;28;20207;-63
2022/12/22 14:56:27;;;;;;;40.53;20.83;;;8.30;99.90;;;;;;5023000;28;20196;-62
2022/12/22 14:59:09;;;;;;;47.57;21.03;;;8.20;99.90;;;;;;5024017;28;20218;-62
2022/12/22 15:01:36;;;;;;;49.10;24.07;;;8.20;99.90;;;;;;5022808;28;20785;-61
2022/12/22 15:04:07;;;;;;;52.87;24.40;;;8.20;99.90;;;;;;5021658;28;20228;-61
2022/12/22 15:06:38;;;;;;;57.27;26.70;;;8.20;99.90;;;;;;5025528;28;20262;-61
2022/12/22 15:09:26;;;;;;;48.20;23.13;;;8.20;99.90;;;;;;5028568;28;20188;-60
2022/12/22 15:11:57;;;;;;;42.47;20.60;;;8.20;99.90;;;;;;5027400;28;20194;-61
2022/12/22 15:14:27;;;;;;;46.37;21.93;;;8.20;99.90;;;;;;5028049;28;20701;-62
2022/12/22 15:17:00;;;;;;;55.43;25.80;;;8.30;99.90;;;;;;5027190;28;20290;-62
2022/12/22 15:19:30;;;;;;;56.67;26.93;;;8.30;99.90;;;;;;5011302;28;20207;-62
2022/12/22 15:21:57;;;;;;;59.43;26.37;;;8.30;99.90;;;;;;5029275;28;20202;-62
2022/12/22 15:24:24;;;;;;;48.30;23.43;;;8.30;99.90;;;;;;5007478;28;20600;-61
2022/12/22 15:26:52;;;;;;;44.47;21.60;;;8.30;99.90;;;;;;5027230;28;20291;-63
2022/12/22 15:29:20;;;;;;;35.57;17.93;;;8.30;99.90;;;;;;5028248;28;20182;-62
2022/12/22 15:31:47;;;;;;;37.00;19.07;;;8.40;99.90;;;;;;5029110;28;20247;-62
2022/12/22 15:34:19;;;;;;;37.87;20.00;;;8.40;99.90;;;;;;5027765;28;20199;-62
2022/12/22 15:36:46;;;;;;;28.83;16.00;;;8.40;99.90;;;;;;5028580;28;20492;-62
2022/12/22 15:39:18;;;;;;;32.97;16.87;;;8.40;99.90;;;;;;5027099;28;20196;-62
2022/12/22 15:41:46;;;;;;;30.53;17.50;;;8.40;99.90;;;;;;5028008;28;20206;-62
2022/12/22 15:44:14;;;;;;;30.33;15.80;;;8.30;99.90;;;;;;5027598;28;20210;-62
2022/12/22 15:46:44;;;;;;;25.17;14.80;;;8.30;99.90;;;;;;5029487;28;20214;-63
2022/12/22 15:49:16;;;;;;;28.43;15.37;;;8.30;99.90;;;;;;5027217;28;20201;-61
2022/12/22 15:51:44;;;;;;;41.33;21.80;;;8.30;99.90;;;;;;5027422;28;20192;-62
2022/12/22 15:54:14;;;;;;;34.17;17.83;;;8.30;99.90;;;;;;5026875;28;20714;-62
2022/12/22 15:56:42;;;;;;;37.80;20.30;;;8.30;99.90;;;;;;5010866;28;20209;-62
2022/12/22 15:59:15;;;;;;;32.63;17.37;;;8.30;99.90;;;;;;5029539;28;20212;-61
2022/12/22 16:01:47;;;;;;;30.17;15.40;;;8.40;99.90;;;;;;5029832;28;20197;-61
2022/12/22 16:04:14;;;;;;;31.97;16.40;;;8.70;99.90;;;;;;5006006;28;20234;-62
2022/12/22 16:06:42;;;;;;;33.43;17.63;;;8.40;99.90;;;;;;5018996;28;20203;-61
2022/12/22 16:09:19;;;;;;;30.67;16.87;;;8.40;99.90;;;;;;5023745;28;20205;-61
2022/12/22 16:11:47;;;;;;;37.30;19.33;;;8.30;99.90;;;;;;5011099;28;20190;-62
2022/12/22 16:14:16;;;;;;;42.50;23.03;;;8.40;99.90;;;;;;5026209;28;20214;-61
2022/12/22 16:16:46;;;;;;;42.30;22.70;;;8.40;99.90;;;;;;5025455;28;20222;-62
2022/12/22 16:19:14;;;;;;;43.43;24.17;;;8.30;99.90;;;;;;5022705;28;20206;-62
2022/12/22 16:21:43;;;;;;;39.43;22.00;;;8.30;99.90;;;;;;5025647;28;20635;-62
2022/12/22 16:24:21;;;;;;;35.53;19.40;;;8.30;99.90;;;;;;5017103;28;20188;-62
2022/12/22 16:26:49;;;;;;;33.57;17.93;;;8.30;99.90;;;;;;5021222;28;20647;-61
2022/12/22 16:29:17;;;;;;;32.07;17.37;;;8.30;99.90;;;;;;5018984;28;20550;-62
2022/12/22 16:31:45;;;;;;;35.10;18.50;;;8.40;99.90;;;;;;5004272;28;20573;-61
2022/12/22 16:34:13;;;;;;;38.67;20.87;;;8.40;99.90;;;;;;5021779;28;20230;-61
2022/12/22 16:36:40;;;;;;;37.13;20.20;;;8.40;99.90;;;;;;5025971;28;20288;-62
2022/12/22 16:39:07;;;;;;;38.30;20.20;;;8.40;99.90;;;;;;5026004;28;20214;-62
2022/12/22 16:41:35;;;;;;;36.07;19.30;;;8.40;99.90;;;;;;5023272;28;20587;-62
2022/12/22 16:44:06;;;;;;;30.30;17.77;;;8.40;99.90;;;;;;5008139;28;20214;-62
2022/12/22 16:46:36;;;;;;;29.93;16.70;;;8.40;99.90;;;;;;5022967;28;20625;-62